sensor_id;sensor_type;location;lat;lon;timestamp;temperature;humidity
13673;DHT22;6909;52.202;9.876;2022-10-29T00:00:49;15.30;99.90
13673;DHT22;6909;52.202;9.876;2022-10-29T00:03:18;15.20;99.90
13673;DHT22;6909;52.202;9.876;2022-10-29T00:05:57;15.10;99.90
13673;DHT22;6909;52.202;9.876;2022-10-29T00:08:24;15.00;99.90
13673;DHT22;6909;52.202;9.876;2022-10-29T00:10:51;14.90;99.90
13673;DHT22;6909;52.202;9.876;2022-10-29T00:13:18;14.80;99.90
13673;DHT22;6909;52.202;9.876;2022-10-29T00:15:44;14.80;99.90
13673;DHT22;6909;52.202;9.876;2022-10-29T00:18:11;14.90;99.90
13673;DHT22;6909;52.202;9.876;2022-10-29T00:20:39;14.90;99.90
13673;DHT22;6909;52.202;9.876;2022-10-29T00:23:06;14.90;99.90
13673;DHT22;6909;52.202;9.876;2022-10-29T00:25:33;14.90;99.90
13673;DHT22;6909;52.202;9.876;2022-10-29T00:27:59;15.00;99.90
13673;DHT22;6909;52.202;9.876;2022-10-29T00:30:26;15.00;99.90
13673;DHT22;6909;52.202;9.876;2022-10-29T00:32:53;15.10;99.90
13673;DHT22;6909;52.202;9.876;2022-10-29T00:35:19;15.10;99.90
13673;DHT22;6909;52.202;9.876;2022-10-29T00:37:47;15.20;99.90
13673;DHT22;6909;52.202;9.876;2022-10-29T00:40:14;15.30;99.90
13673;DHT22;6909;52.202;9.876;2022-10-29T00:42:41;15.40;99.90
13673;DHT22;6909;52.202;9.876;2022-10-29T00:45:16;15.30;99.90
13673;DHT22;6909;52.202;9.876;2022-10-29T00:47:45;15.30;99.90
13673;DHT22;6909;52.202;9.876;2022-10-29T00:50:14;15.30;99.90
13673;DHT22;6909;52.202;9.876;2022-10-29T00:52:44;15.30;99.90
13673;DHT22;6909;52.202;9.876;2022-10-29T00:55:14;15.30;99.90
13673;DHT22;6909;52.202;9.876;2022-10-29T00:57:45;15.20;99.90
13673;DHT22;6909;52.202;9.876;2022-10-29T01:00:15;15.20;99.90
13673;DHT22;6909;52.202;9.876;2022-10-29T01:02:43;15.10;99.90
13673;DHT22;6909;52.202;9.876;2022-10-29T01:05:11;15.10;99.90
13673;DHT22;6909;52.202;9.876;2022-10-29T01:07:38;14.90;99.90
13673;DHT22;6909;52.202;9.876;2022-10-29T01:10:06;14.80;99.90
13673;DHT22;6909;52.202;9.876;2022-10-29T01:12:57;14.80;99.90
13673;DHT22;6909;52.202;9.876;2022-10-29T01:15:36;14.90;99.90
13673;DHT22;6909;52.202;9.876;2022-10-29T01:18:12;14.90;99.90
13673;DHT22;6909;52.202;9.876;2022-10-29T01:21:02;14.90;99.90
13673;DHT22;6909;52.202;9.876;2022-10-29T01:24:02;14.90;99.90
13673;DHT22;6909;52.202;9.876;2022-10-29T01:29:54;15.00;99.90
13673;DHT22;6909;52.202;9.876;2022-10-29T01:32:28;15.00;99.90
13673;DHT22;6909;52.202;9.876;2022-10-29T01:35:00;15.10;99.90
13673;DHT22;6909;52.202;9.876;2022-10-29T01:37:31;15.20;99.90
13673;DHT22;6909;52.202;9.876;2022-10-29T01:40:03;15.30;99.90
13673;DHT22;6909;52.202;9.876;2022-10-29T01:42:36;15.40;99.90
13673;DHT22;6909;52.202;9.876;2022-10-29T01:45:09;15.40;99.90
13673;DHT22;6909;52.202;9.876;2022-10-29T01:47:41;15.40;99.90
13673;DHT22;6909;52.202;9.876;2022-10-29T01:50:12;15.40;99.90
13673;DHT22;6909;52.202;9.876;2022-10-29T01:52:40;15.40;99.90
13673;DHT22;6909;52.202;9.876;2022-10-29T01:55:08;15.30;99.90
13673;DHT22;6909;52.202;9.876;2022-10-29T01:57:36;15.30;99.90
13673;DHT22;6909;52.202;9.876;2022-10-29T02:00:05;15.40;99.90
13673;DHT22;6909;52.202;9.876;2022-10-29T02:02:48;15.40;99.90
13673;DHT22;6909;52.202;9.876;2022-10-29T02:05:26;15.30;99.90
13673;DHT22;6909;52.202;9.876;2022-10-29T02:08:00;15.30;99.90
13673;DHT22;6909;52.202;9.876;2022-10-29T02:10:34;15.30;99.90
13673;DHT22;6909;52.202;9.876;2022-10-29T02:13:03;15.30;99.90
13673;DHT22;6909;52.202;9.876;2022-10-29T02:15:33;15.20;99.90
13673;DHT22;6909;52.202;9.876;2022-10-29T02:18:04;15.10;99.90
13673;DHT22;6909;52.202;9.876;2022-10-29T02:20:31;15.00;99.90
13673;DHT22;6909;52.202;9.876;2022-10-29T02:22:58;14.90;99.90
13673;DHT22;6909;52.202;9.876;2022-10-29T02:25:26;14.90;99.90
13673;DHT22;6909;52.202;9.876;2022-10-29T02:27:53;14.90;99.90
13673;DHT22;6909;52.202;9.876;2022-10-29T02:30:19;14.80;99.90
13673;DHT22;6909;52.202;9.876;2022-10-29T02:32:46;14.70;99.90
13673;DHT22;6909;52.202;9.876;2022-10-29T02:35:14;14.70;99.90
13673;DHT22;6909;52.202;9.876;2022-10-29T02:37:41;14.60;99.90
13673;DHT22;6909;52.202;9.876;2022-10-29T02:40:09;14.60;99.90
13673;DHT22;6909;52.202;9.876;2022-10-29T02:42:36;14.50;99.90
13673;DHT22;6909;52.202;9.876;2022-10-29T02:45:03;14.50;99.90
13673;DHT22;6909;52.202;9.876;2022-10-29T02:47:30;14.40;99.90
13673;DHT22;6909;52.202;9.876;2022-10-29T02:49:56;14.30;99.90
13673;DHT22;6909;52.202;9.876;2022-10-29T02:52:24;14.20;99.90
13673;DHT22;6909;52.202;9.876;2022-10-29T02:54:51;14.20;99.90
13673;DHT22;6909;52.202;9.876;2022-10-29T02:57:18;14.30;99.90
13673;DHT22;6909;52.202;9.876;2022-10-29T02:59:44;14.40;99.90
13673;DHT22;6909;52.202;9.876;2022-10-29T03:02:11;14.40;99.90
13673;DHT22;6909;52.202;9.876;2022-10-29T03:04:38;14.50;99.90
13673;DHT22;6909;52.202;9.876;2022-10-29T03:07:06;14.50;99.90
13673;DHT22;6909;52.202;9.876;2022-10-29T03:09:34;14.30;99.90
13673;DHT22;6909;52.202;9.876;2022-10-29T03:12:00;14.20;99.90
13673;DHT22;6909;52.202;9.876;2022-10-29T03:14:27;14.10;99.90
13673;DHT22;6909;52.202;9.876;2022-10-29T03:16:54;14.10;99.90
13673;DHT22;6909;52.202;9.876;2022-10-29T03:19:20;14.00;99.90
13673;DHT22;6909;52.202;9.876;2022-10-29T03:21:47;14.20;99.90
13673;DHT22;6909;52.202;9.876;2022-10-29T03:24:14;14.50;99.90
13673;DHT22;6909;52.202;9.876;2022-10-29T03:26:42;14.30;99.90
13673;DHT22;6909;52.202;9.876;2022-10-29T03:29:08;14.20;99.90
13673;DHT22;6909;52.202;9.876;2022-10-29T03:31:35;14.10;99.90
13673;DHT22;6909;52.202;9.876;2022-10-29T03:34:02;14.00;99.90
13673;DHT22;6909;52.202;9.876;2022-10-29T03:36:28;14.00;99.90
13673;DHT22;6909;52.202;9.876;2022-10-29T03:38:55;14.10;99.90
13673;DHT22;6909;52.202;9.876;2022-10-29T03:41:22;14.10;99.90
13673;DHT22;6909;52.202;9.876;2022-10-29T03:43:50;14.20;99.90
13673;DHT22;6909;52.202;9.876;2022-10-29T03:46:17;14.10;99.90
13673;DHT22;6909;52.202;9.876;2022-10-29T03:48:43;14.20;99.90
13673;DHT22;6909;52.202;9.876;2022-10-29T03:51:10;14.30;99.90
13673;DHT22;6909;52.202;9.876;2022-10-29T03:53:37;14.30;99.90
13673;DHT22;6909;52.202;9.876;2022-10-29T03:56:04;14.40;99.90
13673;DHT22;6909;52.202;9.876;2022-10-29T03:58:31;14.60;99.90
13673;DHT22;6909;52.202;9.876;2022-10-29T04:01:00;14.60;99.90
13673;DHT22;6909;52.202;9.876;2022-10-29T04:03:28;14.70;99.90
13673;DHT22;6909;52.202;9.876;2022-10-29T04:05:56;14.70;99.90
13673;DHT22;6909;52.202;9.876;2022-10-29T04:08:23;14.60;99.90
13673;DHT22;6909;52.202;9.876;2022-10-29T04:10:51;14.60;99.90
13673;DHT22;6909;52.202;9.876;2022-10-29T04:13:18;14.60;99.90
13673;DHT22;6909;52.202;9.876;2022-10-29T04:15:45;14.60;99.90
13673;DHT22;6909;52.202;9.876;2022-10-29T04:18:14;14.70;99.90
13673;DHT22;6909;52.202;9.876;2022-10-29T04:20:40;14.80;99.90
13673;DHT22;6909;52.202;9.876;2022-10-29T04:23:07;14.80;99.90
13673;DHT22;6909;52.202;9.876;2022-10-29T04:25:34;15.00;99.90
13673;DHT22;6909;52.202;9.876;2022-10-29T04:28:00;14.90;99.90
13673;DHT22;6909;52.202;9.876;2022-10-29T04:30:27;14.90;99.90
13673;DHT22;6909;52.202;9.876;2022-10-29T04:32:57;15.00;99.90
13673;DHT22;6909;52.202;9.876;2022-10-29T04:35:27;15.00;99.90
13673;DHT22;6909;52.202;9.876;2022-10-29T04:37:54;15.00;99.90
13673;DHT22;6909;52.202;9.876;2022-10-29T04:40:21;15.10;99.90
13673;DHT22;6909;52.202;9.876;2022-10-29T04:42:49;15.10;99.90
13673;DHT22;6909;52.202;9.876;2022-10-29T04:45:17;15.20;99.90
13673;DHT22;6909;52.202;9.876;2022-10-29T04:47:44;15.30;99.90
13673;DHT22;6909;52.202;9.876;2022-10-29T04:50:11;15.30;99.90
13673;DHT22;6909;52.202;9.876;2022-10-29T04:52:39;15.30;99.90
13673;DHT22;6909;52.202;9.876;2022-10-29T04:55:06;15.30;99.90
13673;DHT22;6909;52.202;9.876;2022-10-29T04:57:33;15.40;99.90
13673;DHT22;6909;52.202;9.876;2022-10-29T05:00:00;15.40;99.90
13673;DHT22;6909;52.202;9.876;2022-10-29T05:02:27;15.30;99.90
13673;DHT22;6909;52.202;9.876;2022-10-29T05:04:53;15.30;99.90
13673;DHT22;6909;52.202;9.876;2022-10-29T05:07:20;15.20;99.90
13673;DHT22;6909;52.202;9.876;2022-10-29T05:09:48;15.10;99.90
13673;DHT22;6909;52.202;9.876;2022-10-29T05:12:15;15.00;99.90
13673;DHT22;6909;52.202;9.876;2022-10-29T05:14:41;15.00;99.90
13673;DHT22;6909;52.202;9.876;2022-10-29T05:17:08;14.90;99.90
13673;DHT22;6909;52.202;9.876;2022-10-29T05:19:35;14.90;99.90
13673;DHT22;6909;52.202;9.876;2022-10-29T05:22:01;14.90;99.90
13673;DHT22;6909;52.202;9.876;2022-10-29T05:24:28;14.90;99.90
13673;DHT22;6909;52.202;9.876;2022-10-29T05:26:56;14.90;99.90
13673;DHT22;6909;52.202;9.876;2022-10-29T05:29:23;14.80;99.90
13673;DHT22;6909;52.202;9.876;2022-10-29T05:31:52;14.80;99.90
13673;DHT22;6909;52.202;9.876;2022-10-29T05:34:18;14.70;99.90
13673;DHT22;6909;52.202;9.876;2022-10-29T05:36:46;14.70;99.90
13673;DHT22;6909;52.202;9.876;2022-10-29T05:39:12;14.70;99.90
13673;DHT22;6909;52.202;9.876;2022-10-29T05:41:39;14.70;99.90
13673;DHT22;6909;52.202;9.876;2022-10-29T05:44:07;14.70;99.90
13673;DHT22;6909;52.202;9.876;2022-10-29T05:46:34;14.80;99.90
13673;DHT22;6909;52.202;9.876;2022-10-29T05:49:00;14.90;99.90
13673;DHT22;6909;52.202;9.876;2022-10-29T05:51:27;15.00;99.90
13673;DHT22;6909;52.202;9.876;2022-10-29T05:53:54;15.00;99.90
13673;DHT22;6909;52.202;9.876;2022-10-29T05:56:20;15.10;99.90
13673;DHT22;6909;52.202;9.876;2022-10-29T05:58:47;15.10;99.90
13673;DHT22;6909;52.202;9.876;2022-10-29T06:01:16;15.10;99.90
13673;DHT22;6909;52.202;9.876;2022-10-29T06:03:44;15.10;99.90
13673;DHT22;6909;52.202;9.876;2022-10-29T06:06:11;15.10;99.90
13673;DHT22;6909;52.202;9.876;2022-10-29T06:08:37;15.10;99.90
13673;DHT22;6909;52.202;9.876;2022-10-29T06:11:04;15.10;99.90
13673;DHT22;6909;52.202;9.876;2022-10-29T06:13:31;15.10;99.90
13673;DHT22;6909;52.202;9.876;2022-10-29T06:15:59;15.10;99.90
13673;DHT22;6909;52.202;9.876;2022-10-29T06:18:27;15.10;99.90
13673;DHT22;6909;52.202;9.876;2022-10-29T06:20:56;15.10;99.90
13673;DHT22;6909;52.202;9.876;2022-10-29T06:23:23;15.10;99.90
13673;DHT22;6909;52.202;9.876;2022-10-29T06:25:50;15.10;99.90
13673;DHT22;6909;52.202;9.876;2022-10-29T06:28:17;15.20;99.90
13673;DHT22;6909;52.202;9.876;2022-10-29T06:30:45;15.10;99.90
13673;DHT22;6909;52.202;9.876;2022-10-29T06:33:12;15.10;99.90
13673;DHT22;6909;52.202;9.876;2022-10-29T06:35:41;15.20;99.90
13673;DHT22;6909;52.202;9.876;2022-10-29T06:38:07;15.10;99.90
13673;DHT22;6909;52.202;9.876;2022-10-29T06:40:34;15.00;99.90
13673;DHT22;6909;52.202;9.876;2022-10-29T06:43:02;14.90;99.90
13673;DHT22;6909;52.202;9.876;2022-10-29T06:45:30;14.90;99.90
13673;DHT22;6909;52.202;9.876;2022-10-29T06:47:57;15.00;99.90
13673;DHT22;6909;52.202;9.876;2022-10-29T06:50:24;15.10;99.90
13673;DHT22;6909;52.202;9.876;2022-10-29T06:52:56;15.20;99.90
13673;DHT22;6909;52.202;9.876;2022-10-29T06:55:23;15.40;99.90
13673;DHT22;6909;52.202;9.876;2022-10-29T06:57:56;15.50;99.90
13673;DHT22;6909;52.202;9.876;2022-10-29T07:00:23;15.50;99.90
13673;DHT22;6909;52.202;9.876;2022-10-29T07:02:50;15.60;99.90
13673;DHT22;6909;52.202;9.876;2022-10-29T07:05:16;15.60;99.90
13673;DHT22;6909;52.202;9.876;2022-10-29T07:07:43;15.70;99.90
13673;DHT22;6909;52.202;9.876;2022-10-29T07:10:11;15.70;99.90
13673;DHT22;6909;52.202;9.876;2022-10-29T07:12:39;15.80;99.90
13673;DHT22;6909;52.202;9.876;2022-10-29T07:15:07;15.90;99.90
13673;DHT22;6909;52.202;9.876;2022-10-29T07:17:34;16.00;99.90
13673;DHT22;6909;52.202;9.876;2022-10-29T07:20:01;16.00;99.90
13673;DHT22;6909;52.202;9.876;2022-10-29T07:22:28;16.10;99.90
13673;DHT22;6909;52.202;9.876;2022-10-29T07:24:55;16.10;99.90
13673;DHT22;6909;52.202;9.876;2022-10-29T07:27:23;16.20;99.90
13673;DHT22;6909;52.202;9.876;2022-10-29T07:29:49;16.10;99.90
13673;DHT22;6909;52.202;9.876;2022-10-29T07:32:16;16.20;99.90
13673;DHT22;6909;52.202;9.876;2022-10-29T07:34:43;16.20;99.90
13673;DHT22;6909;52.202;9.876;2022-10-29T07:37:09;16.20;99.90
13673;DHT22;6909;52.202;9.876;2022-10-29T07:39:36;16.20;99.90
13673;DHT22;6909;52.202;9.876;2022-10-29T07:42:03;16.30;99.90
13673;DHT22;6909;52.202;9.876;2022-10-29T07:44:31;16.30;99.90
13673;DHT22;6909;52.202;9.876;2022-10-29T07:46:58;16.50;99.90
13673;DHT22;6909;52.202;9.876;2022-10-29T07:49:26;16.70;99.90
13673;DHT22;6909;52.202;9.876;2022-10-29T07:51:53;17.00;99.90
13673;DHT22;6909;52.202;9.876;2022-10-29T07:54:20;17.30;99.90
13673;DHT22;6909;52.202;9.876;2022-10-29T07:56:46;17.60;99.90
13673;DHT22;6909;52.202;9.876;2022-10-29T07:59:13;17.80;99.90
13673;DHT22;6909;52.202;9.876;2022-10-29T08:01:41;18.20;99.90
13673;DHT22;6909;52.202;9.876;2022-10-29T08:04:08;18.30;99.90
13673;DHT22;6909;52.202;9.876;2022-10-29T08:06:34;18.40;99.90
13673;DHT22;6909;52.202;9.876;2022-10-29T08:09:01;18.40;99.90
13673;DHT22;6909;52.202;9.876;2022-10-29T08:11:30;18.10;99.90
13673;DHT22;6909;52.202;9.876;2022-10-29T08:13:57;17.80;99.90
13673;DHT22;6909;52.202;9.876;2022-10-29T08:16:24;17.60;99.90
13673;DHT22;6909;52.202;9.876;2022-10-29T08:18:53;17.60;99.90
13673;DHT22;6909;52.202;9.876;2022-10-29T08:21:19;17.60;99.90
13673;DHT22;6909;52.202;9.876;2022-10-29T08:23:46;17.70;99.90
13673;DHT22;6909;52.202;9.876;2022-10-29T08:26:13;17.70;99.90
13673;DHT22;6909;52.202;9.876;2022-10-29T08:28:39;17.70;99.90
13673;DHT22;6909;52.202;9.876;2022-10-29T08:31:07;17.70;99.90
13673;DHT22;6909;52.202;9.876;2022-10-29T08:33:33;17.70;99.90
13673;DHT22;6909;52.202;9.876;2022-10-29T08:36:02;17.70;99.90
13673;DHT22;6909;52.202;9.876;2022-10-29T08:38:28;17.60;99.90
13673;DHT22;6909;52.202;9.876;2022-10-29T08:41:09;17.60;99.90
13673;DHT22;6909;52.202;9.876;2022-10-29T08:46:42;17.70;99.90
13673;DHT22;6909;52.202;9.876;2022-10-29T08:49:14;17.60;99.90
13673;DHT22;6909;52.202;9.876;2022-10-29T08:51:48;17.70;99.90
13673;DHT22;6909;52.202;9.876;2022-10-29T08:54:18;17.80;99.90
13673;DHT22;6909;52.202;9.876;2022-10-29T08:56:47;17.80;99.90
13673;DHT22;6909;52.202;9.876;2022-10-29T08:59:16;17.70;99.90
13673;DHT22;6909;52.202;9.876;2022-10-29T09:01:43;17.90;99.90
13673;DHT22;6909;52.202;9.876;2022-10-29T09:04:21;18.20;99.90
13673;DHT22;6909;52.202;9.876;2022-10-29T09:07:02;18.50;99.90
13673;DHT22;6909;52.202;9.876;2022-10-29T09:09:37;18.90;99.90
13673;DHT22;6909;52.202;9.876;2022-10-29T09:12:15;19.00;99.90
13673;DHT22;6909;52.202;9.876;2022-10-29T09:17:44;19.10;99.90
13673;DHT22;6909;52.202;9.876;2022-10-29T09:20:25;19.00;99.90
13673;DHT22;6909;52.202;9.876;2022-10-29T09:23:05;19.00;99.90
13673;DHT22;6909;52.202;9.876;2022-10-29T09:25:40;18.90;99.90
13673;DHT22;6909;52.202;9.876;2022-10-29T09:28:23;18.90;99.90
13673;DHT22;6909;52.202;9.876;2022-10-29T09:30:59;18.80;99.90
13673;DHT22;6909;52.202;9.876;2022-10-29T09:33:28;18.80;99.90
13673;DHT22;6909;52.202;9.876;2022-10-29T09:35:57;18.70;99.90
13673;DHT22;6909;52.202;9.876;2022-10-29T09:38:29;18.80;99.90
13673;DHT22;6909;52.202;9.876;2022-10-29T09:40:59;18.90;99.90
13673;DHT22;6909;52.202;9.876;2022-10-29T09:43:36;19.20;99.90
13673;DHT22;6909;52.202;9.876;2022-10-29T09:46:10;19.30;99.90
13673;DHT22;6909;52.202;9.876;2022-10-29T09:48:47;19.10;99.90
13673;DHT22;6909;52.202;9.876;2022-10-29T09:51:25;19.30;99.90
13673;DHT22;6909;52.202;9.876;2022-10-29T09:53:57;19.40;99.90
13673;DHT22;6909;52.202;9.876;2022-10-29T09:56:24;19.40;99.90
13673;DHT22;6909;52.202;9.876;2022-10-29T09:58:55;19.50;99.90
13673;DHT22;6909;52.202;9.876;2022-10-29T10:01:23;19.60;99.90
13673;DHT22;6909;52.202;9.876;2022-10-29T10:03:54;19.70;99.90
13673;DHT22;6909;52.202;9.876;2022-10-29T10:06:21;19.60;99.90
13673;DHT22;6909;52.202;9.876;2022-10-29T10:09:00;19.30;99.90
13673;DHT22;6909;52.202;9.876;2022-10-29T10:11:32;19.10;99.90
13673;DHT22;6909;52.202;9.876;2022-10-29T10:14:05;19.10;99.90
13673;DHT22;6909;52.202;9.876;2022-10-29T10:16:32;19.00;99.90
13673;DHT22;6909;52.202;9.876;2022-10-29T10:18:59;19.10;99.90
13673;DHT22;6909;52.202;9.876;2022-10-29T10:21:28;18.90;99.90
13673;DHT22;6909;52.202;9.876;2022-10-29T10:23:55;19.00;99.90
13673;DHT22;6909;52.202;9.876;2022-10-29T10:26:32;19.00;99.90
13673;DHT22;6909;52.202;9.876;2022-10-29T10:29:04;18.90;99.90
13673;DHT22;6909;52.202;9.876;2022-10-29T10:31:31;18.80;99.90
13673;DHT22;6909;52.202;9.876;2022-10-29T10:33:58;18.70;99.90
13673;DHT22;6909;52.202;9.876;2022-10-29T10:36:38;18.70;99.90
13673;DHT22;6909;52.202;9.876;2022-10-29T10:39:26;18.70;99.90
13673;DHT22;6909;52.202;9.876;2022-10-29T10:41:56;18.70;99.90
13673;DHT22;6909;52.202;9.876;2022-10-29T10:44:23;18.80;99.90
13673;DHT22;6909;52.202;9.876;2022-10-29T10:46:53;18.90;99.90
13673;DHT22;6909;52.202;9.876;2022-10-29T10:49:29;18.90;99.90
13673;DHT22;6909;52.202;9.876;2022-10-29T10:51:57;19.00;99.90
13673;DHT22;6909;52.202;9.876;2022-10-29T10:54:28;19.10;99.90
13673;DHT22;6909;52.202;9.876;2022-10-29T10:56:58;19.10;99.90
13673;DHT22;6909;52.202;9.876;2022-10-29T10:59:29;19.20;99.90
13673;DHT22;6909;52.202;9.876;2022-10-29T11:01:58;19.30;99.90
13673;DHT22;6909;52.202;9.876;2022-10-29T11:04:30;19.30;99.90
13673;DHT22;6909;52.202;9.876;2022-10-29T11:07:01;19.50;99.90
13673;DHT22;6909;52.202;9.876;2022-10-29T11:09:33;19.70;99.90
13673;DHT22;6909;52.202;9.876;2022-10-29T11:12:05;19.90;99.90
13673;DHT22;6909;52.202;9.876;2022-10-29T11:14:38;19.90;99.90
13673;DHT22;6909;52.202;9.876;2022-10-29T11:17:19;20.00;99.90
13673;DHT22;6909;52.202;9.876;2022-10-29T11:19:50;20.10;99.90
13673;DHT22;6909;52.202;9.876;2022-10-29T11:22:23;20.10;99.90
13673;DHT22;6909;52.202;9.876;2022-10-29T11:24:56;20.40;99.90
13673;DHT22;6909;52.202;9.876;2022-10-29T11:27:30;20.70;99.90
13673;DHT22;6909;52.202;9.876;2022-10-29T11:30:04;20.70;99.90
13673;DHT22;6909;52.202;9.876;2022-10-29T11:32:47;21.10;99.90
13673;DHT22;6909;52.202;9.876;2022-10-29T11:35:22;21.10;99.90
13673;DHT22;6909;52.202;9.876;2022-10-29T11:37:57;21.00;99.90
13673;DHT22;6909;52.202;9.876;2022-10-29T11:40:35;21.00;99.90
13673;DHT22;6909;52.202;9.876;2022-10-29T11:43:10;21.00;99.90
13673;DHT22;6909;52.202;9.876;2022-10-29T11:45:44;21.00;99.90
13673;DHT22;6909;52.202;9.876;2022-10-29T11:48:20;21.10;99.90
13673;DHT22;6909;52.202;9.876;2022-10-29T11:50:53;21.10;99.90
13673;DHT22;6909;52.202;9.876;2022-10-29T11:53:36;21.10;99.90
13673;DHT22;6909;52.202;9.876;2022-10-29T11:56:11;21.30;99.90
13673;DHT22;6909;52.202;9.876;2022-10-29T11:58:45;21.20;99.90
13673;DHT22;6909;52.202;9.876;2022-10-29T12:01:20;21.30;99.90
13673;DHT22;6909;52.202;9.876;2022-10-29T12:04:02;21.90;99.90
13673;DHT22;6909;52.202;9.876;2022-10-29T12:06:36;21.70;99.90
13673;DHT22;6909;52.202;9.876;2022-10-29T12:09:19;21.50;99.90
13673;DHT22;6909;52.202;9.876;2022-10-29T12:11:52;21.70;99.90
13673;DHT22;6909;52.202;9.876;2022-10-29T12:14:24;21.70;99.90
13673;DHT22;6909;52.202;9.876;2022-10-29T12:16:58;21.80;99.90
13673;DHT22;6909;52.202;9.876;2022-10-29T12:19:36;21.80;99.90
13673;DHT22;6909;52.202;9.876;2022-10-29T12:22:12;21.80;99.90
13673;DHT22;6909;52.202;9.876;2022-10-29T12:24:52;21.80;99.90
13673;DHT22;6909;52.202;9.876;2022-10-29T12:27:29;21.80;99.90
13673;DHT22;6909;52.202;9.876;2022-10-29T12:30:04;21.70;99.90
13673;DHT22;6909;52.202;9.876;2022-10-29T12:32:36;21.70;99.90
13673;DHT22;6909;52.202;9.876;2022-10-29T12:35:12;21.60;99.90
13673;DHT22;6909;52.202;9.876;2022-10-29T12:37:43;21.50;99.90
13673;DHT22;6909;52.202;9.876;2022-10-29T12:40:15;21.60;99.90
13673;DHT22;6909;52.202;9.876;2022-10-29T12:42:45;21.70;99.90
13673;DHT22;6909;52.202;9.876;2022-10-29T12:45:24;21.70;99.90
13673;DHT22;6909;52.202;9.876;2022-10-29T12:48:00;21.80;99.90
13673;DHT22;6909;52.202;9.876;2022-10-29T12:50:41;21.80;99.90
13673;DHT22;6909;52.202;9.876;2022-10-29T12:53:15;21.70;99.90
13673;DHT22;6909;52.202;9.876;2022-10-29T12:55:43;21.50;99.90
13673;DHT22;6909;52.202;9.876;2022-10-29T12:58:46;21.50;99.90
13673;DHT22;6909;52.202;9.876;2022-10-29T13:01:43;21.40;99.90
13673;DHT22;6909;52.202;9.876;2022-10-29T13:04:27;21.40;99.90
13673;DHT22;6909;52.202;9.876;2022-10-29T13:07:05;21.40;99.90
13673;DHT22;6909;52.202;9.876;2022-10-29T13:09:47;21.50;99.90
13673;DHT22;6909;52.202;9.876;2022-10-29T13:12:54;21.50;99.90
13673;DHT22;6909;52.202;9.876;2022-10-29T13:15:26;21.50;99.90
13673;DHT22;6909;52.202;9.876;2022-10-29T13:17:56;21.50;99.90
13673;DHT22;6909;52.202;9.876;2022-10-29T13:20:31;21.60;99.90
13673;DHT22;6909;52.202;9.876;2022-10-29T13:23:00;21.50;99.90
13673;DHT22;6909;52.202;9.876;2022-10-29T13:25:45;21.50;99.90
13673;DHT22;6909;52.202;9.876;2022-10-29T13:28:48;21.50;99.90
13673;DHT22;6909;52.202;9.876;2022-10-29T13:31:46;21.50;99.90
13673;DHT22;6909;52.202;9.876;2022-10-29T13:34:50;21.30;99.90
13673;DHT22;6909;52.202;9.876;2022-10-29T13:41:07;20.70;99.90
13673;DHT22;6909;52.202;9.876;2022-10-29T13:43:36;20.70;99.90
13673;DHT22;6909;52.202;9.876;2022-10-29T13:46:43;20.60;99.90
13673;DHT22;6909;52.202;9.876;2022-10-29T13:49:14;20.50;99.90
13673;DHT22;6909;52.202;9.876;2022-10-29T13:51:49;20.40;99.90
13673;DHT22;6909;52.202;9.876;2022-10-29T13:54:31;20.40;99.90
13673;DHT22;6909;52.202;9.876;2022-10-29T13:57:02;20.20;99.90
13673;DHT22;6909;52.202;9.876;2022-10-29T13:59:40;20.10;99.90
13673;DHT22;6909;52.202;9.876;2022-10-29T14:02:20;20.10;99.90
13673;DHT22;6909;52.202;9.876;2022-10-29T14:04:53;20.00;99.90
13673;DHT22;6909;52.202;9.876;2022-10-29T14:07:27;20.10;99.90
13673;DHT22;6909;52.202;9.876;2022-10-29T14:10:00;20.20;99.90
13673;DHT22;6909;52.202;9.876;2022-10-29T14:12:30;20.10;99.90
13673;DHT22;6909;52.202;9.876;2022-10-29T14:15:03;20.30;99.90
13673;DHT22;6909;52.202;9.876;2022-10-29T14:17:32;20.30;99.90
13673;DHT22;6909;52.202;9.876;2022-10-29T14:19:59;20.40;99.90
13673;DHT22;6909;52.202;9.876;2022-10-29T14:22:35;20.60;99.90
13673;DHT22;6909;52.202;9.876;2022-10-29T14:25:24;20.60;99.90
13673;DHT22;6909;52.202;9.876;2022-10-29T14:28:09;20.70;99.90
13673;DHT22;6909;52.202;9.876;2022-10-29T14:30:36;20.60;99.90
13673;DHT22;6909;52.202;9.876;2022-10-29T14:33:22;20.50;99.90
13673;DHT22;6909;52.202;9.876;2022-10-29T14:35:51;20.40;99.90
13673;DHT22;6909;52.202;9.876;2022-10-29T14:38:21;20.30;99.90
13673;DHT22;6909;52.202;9.876;2022-10-29T14:40:51;20.10;99.90
13673;DHT22;6909;52.202;9.876;2022-10-29T14:43:21;19.90;99.90
13673;DHT22;6909;52.202;9.876;2022-10-29T14:48:17;19.70;99.90
13673;DHT22;6909;52.202;9.876;2022-10-29T14:50:47;19.60;99.90
13673;DHT22;6909;52.202;9.876;2022-10-29T14:53:26;19.60;99.90
13673;DHT22;6909;52.202;9.876;2022-10-29T14:55:54;19.50;99.90
13673;DHT22;6909;52.202;9.876;2022-10-29T14:58:23;19.50;99.90
13673;DHT22;6909;52.202;9.876;2022-10-29T15:00:54;19.60;99.90
13673;DHT22;6909;52.202;9.876;2022-10-29T15:03:24;19.60;99.90
13673;DHT22;6909;52.202;9.876;2022-10-29T15:06:10;19.70;99.90
13673;DHT22;6909;52.202;9.876;2022-10-29T15:08:39;19.70;99.90
13673;DHT22;6909;52.202;9.876;2022-10-29T15:11:31;19.70;99.90
13673;DHT22;6909;52.202;9.876;2022-10-29T15:13:58;19.80;99.90
13673;DHT22;6909;52.202;9.876;2022-10-29T15:16:25;19.80;99.90
13673;DHT22;6909;52.202;9.876;2022-10-29T15:18:53;19.70;99.90
13673;DHT22;6909;52.202;9.876;2022-10-29T15:21:22;19.50;99.90
13673;DHT22;6909;52.202;9.876;2022-10-29T15:23:52;19.50;99.90
13673;DHT22;6909;52.202;9.876;2022-10-29T15:26:20;19.30;99.90
13673;DHT22;6909;52.202;9.876;2022-10-29T15:28:50;19.20;99.90
13673;DHT22;6909;52.202;9.876;2022-10-29T15:31:19;19.10;99.90
13673;DHT22;6909;52.202;9.876;2022-10-29T15:33:49;18.90;99.90
13673;DHT22;6909;52.202;9.876;2022-10-29T15:36:16;18.50;99.90
13673;DHT22;6909;52.202;9.876;2022-10-29T15:39:16;18.50;99.90
13673;DHT22;6909;52.202;9.876;2022-10-29T15:41:47;18.40;99.90
13673;DHT22;6909;52.202;9.876;2022-10-29T15:44:35;18.40;99.90
13673;DHT22;6909;52.202;9.876;2022-10-29T15:47:18;18.50;99.90
13673;DHT22;6909;52.202;9.876;2022-10-29T15:49:45;18.50;99.90
13673;DHT22;6909;52.202;9.876;2022-10-29T15:52:15;18.00;99.90
13673;DHT22;6909;52.202;9.876;2022-10-29T15:54:44;17.40;99.90
13673;DHT22;6909;52.202;9.876;2022-10-29T15:57:12;17.00;99.90
13673;DHT22;6909;52.202;9.876;2022-10-29T15:59:40;16.70;99.90
13673;DHT22;6909;52.202;9.876;2022-10-29T16:02:09;16.60;99.90
13673;DHT22;6909;52.202;9.876;2022-10-29T16:04:36;16.60;99.90
13673;DHT22;6909;52.202;9.876;2022-10-29T16:07:03;16.60;99.90
13673;DHT22;6909;52.202;9.876;2022-10-29T16:09:30;16.60;99.90
13673;DHT22;6909;52.202;9.876;2022-10-29T16:11:58;16.40;99.90
13673;DHT22;6909;52.202;9.876;2022-10-29T16:14:24;16.40;99.90
13673;DHT22;6909;52.202;9.876;2022-10-29T16:16:51;16.40;99.90
13673;DHT22;6909;52.202;9.876;2022-10-29T16:19:18;16.40;99.90
13673;DHT22;6909;52.202;9.876;2022-10-29T16:21:44;16.40;99.90
13673;DHT22;6909;52.202;9.876;2022-10-29T16:24:13;16.50;99.90